Terminal Aerodrome Forecast
Issued by NWS Bismarck, ND

Home | Current Version | Previous Version | Text Only | Print | Product List | Glossary On
Versions: 1 2 3 4 5 6 7 8 9 10 11 12 13 14
000
FTUS43 KBIS 311100
TAFBIS
TAF
KBIS 311129Z 3112/0112 06004KT P6SM SCT150
     FM311800 02005KT P6SM SCT070 BKN100
     FM010200 09005KT P6SM SCT100
     FM010600 07004KT P6SM VCSH SCT080 BKN100=

USA.gov is the U.S. government's official web portal to all federal, state and local government web resources and services.